Time;durP1;ratioP1;P1;durP2;ratioP2;P2;SDS_P1;SDS_P2;PMS_P1;PMS_P2;Temp;Humidity;BMP_temperature;BMP_pressure;BME280_temperature;BME280_humidity;BME280_pressure;Samples;Min_cycle;Max_cycle;Signal;HPM_P1;HPM_P2
2021/11/03 00:00:10;;;;;;;249.53;238.23;;;5.00;99.90;;;;;;4422692;32;20143;-61
2021/11/03 00:02:41;;;;;;;233.33;222.83;;;5.00;99.90;;;;;;4421024;32;20155;-61
2021/11/03 00:05:10;;;;;;;243.00;232.03;;;5.00;99.90;;;;;;4420782;32;20537;-60
2021/11/03 00:07:38;;;;;;;237.47;226.77;;;4.90;99.90;;;;;;4420898;32;20167;-62
2021/11/03 00:10:07;;;;;;;243.97;232.97;;;4.90;99.90;;;;;;4421715;32;20178;-61
2021/11/03 00:12:36;;;;;;;227.87;217.30;;;4.80;99.90;;;;;;4422472;32;20175;-61
2021/11/03 00:15:04;;;;;;;230.00;219.50;;;4.80;99.90;;;;;;4420775;32;20513;-62
2021/11/03 00:17:34;;;;;;;227.87;216.97;;;4.80;99.90;;;;;;4416397;32;20163;-61
2021/11/03 00:20:01;;;;;;;223.83;213.87;;;4.80;99.90;;;;;;4407451;32;20178;-61
2021/11/03 00:22:28;;;;;;;252.10;240.33;;;4.70;99.90;;;;;;4411848;32;20179;-62
2021/11/03 00:24:55;;;;;;;222.37;212.30;;;4.70;99.90;;;;;;4422232;32;20189;-61
2021/11/03 00:27:22;;;;;;;242.80;231.67;;;4.70;99.90;;;;;;4420900;32;20262;-61
2021/11/03 00:29:50;;;;;;;238.13;227.57;;;4.70;99.90;;;;;;4420351;32;20191;-61
2021/11/03 00:32:18;;;;;;;227.87;217.37;;;4.70;99.90;;;;;;4420575;32;20231;-61
2021/11/03 00:34:45;;;;;;;244.53;233.13;;;4.60;99.90;;;;;;4421219;32;20155;-62
2021/11/03 00:37:14;;;;;;;226.63;215.93;;;4.60;99.90;;;;;;4420683;32;20166;-60
2021/11/03 00:39:40;;;;;;;228.57;217.93;;;4.60;99.90;;;;;;4420991;32;20159;-60
2021/11/03 00:42:08;;;;;;;231.83;220.93;;;4.60;99.90;;;;;;4421870;32;20162;-61
2021/11/03 00:44:35;;;;;;;237.70;226.33;;;4.60;99.90;;;;;;4421407;32;20597;-61
2021/11/03 00:47:03;;;;;;;237.13;225.87;;;4.60;99.90;;;;;;4419099;32;20175;-61
2021/11/03 00:49:32;;;;;;;238.33;227.13;;;4.70;99.90;;;;;;4414964;32;20184;-61
2021/11/03 00:51:59;;;;;;;239.57;228.10;;;4.70;99.90;;;;;;4408523;32;20598;-61
2021/11/03 00:54:27;;;;;;;249.87;237.70;;;4.90;99.90;;;;;;4408371;32;20186;-60
2021/11/03 00:56:54;;;;;;;235.80;224.20;;;4.80;99.90;;;;;;4408604;32;20160;-61
2021/11/03 00:59:21;;;;;;;248.40;235.47;;;4.80;99.90;;;;;;4408157;32;20529;-61
2021/11/03 01:01:48;;;;;;;261.27;248.00;;;4.90;99.90;;;;;;4408369;32;20170;-61
2021/11/03 01:04:16;;;;;;;254.23;241.47;;;4.90;99.90;;;;;;4409003;32;20195;-61
2021/11/03 01:06:43;;;;;;;256.27;243.13;;;5.00;99.90;;;;;;4411454;32;20487;-61
2021/11/03 01:09:10;;;;;;;267.07;253.20;;;5.10;99.90;;;;;;4423504;32;20194;-61
2021/11/03 01:11:37;;;;;;;247.23;233.90;;;4.90;99.90;;;;;;4423439;32;20222;-61
2021/11/03 01:14:05;;;;;;;257.30;243.57;;;5.00;99.90;;;;;;4408928;32;20186;-60
2021/11/03 01:16:33;;;;;;;258.50;244.17;;;4.90;99.90;;;;;;4408176;32;20208;-61
2021/11/03 01:19:00;;;;;;;255.90;242.27;;;4.90;99.90;;;;;;4409885;32;20493;-61
2021/11/03 01:21:28;;;;;;;257.87;244.70;;;4.90;99.90;;;;;;4409738;32;20614;-60
2021/11/03 01:23:55;;;;;;;252.53;239.93;;;4.90;99.90;;;;;;4407909;32;20195;-60
2021/11/03 01:26:22;;;;;;;264.90;251.77;;;4.90;99.90;;;;;;4408855;32;20223;-61
2021/11/03 01:28:49;;;;;;;258.07;244.40;;;4.90;99.90;;;;;;4407952;32;20238;-59
2021/11/03 01:31:16;;;;;;;260.33;246.07;;;4.90;99.90;;;;;;4408122;32;20200;-61
2021/11/03 01:33:47;;;;;;;257.83;244.67;;;4.90;99.90;;;;;;4407932;32;20234;-60
2021/11/03 01:36:15;;;;;;;256.40;243.03;;;4.90;99.90;;;;;;4407875;32;20179;-60
2021/11/03 01:38:43;;;;;;;261.60;247.70;;;4.90;99.90;;;;;;4409276;32;20167;-60
2021/11/03 01:41:10;;;;;;;244.23;231.43;;;4.80;99.90;;;;;;4407893;32;20182;-61
2021/11/03 01:43:40;;;;;;;262.53;248.70;;;4.80;99.90;;;;;;4410624;32;20207;-61
2021/11/03 01:46:18;;;;;;;261.80;247.57;;;4.80;99.90;;;;;;4423284;32;20179;-61
2021/11/03 01:48:45;;;;;;;245.93;233.10;;;4.80;99.90;;;;;;4423043;32;20170;-60
2021/11/03 01:51:17;;;;;;;259.03;246.27;;;4.80;99.90;;;;;;4422991;32;20208;-60
2021/11/03 01:53:45;;;;;;;248.87;235.47;;;4.90;99.90;;;;;;4423311;32;20210;-60
2021/11/03 01:56:16;;;;;;;253.53;240.50;;;4.80;99.90;;;;;;4415843;32;20178;-61
2021/11/03 01:58:46;;;;;;;247.73;234.77;;;4.70;99.90;;;;;;4421250;32;20263;-61
2021/11/03 02:01:13;;;;;;;244.27;231.50;;;4.70;99.90;;;;;;4422605;32;20206;-60
2021/11/03 02:03:42;;;;;;;261.83;248.60;;;4.80;99.90;;;;;;4424502;32;20165;-61
2021/11/03 02:06:12;;;;;;;258.37;244.77;;;4.80;99.90;;;;;;4423401;32;20175;-60
2021/11/03 02:08:43;;;;;;;248.17;235.27;;;4.80;99.90;;;;;;4409422;32;20220;-60
2021/11/03 02:11:12;;;;;;;253.97;238.80;;;4.90;99.90;;;;;;4408570;32;20200;-60
2021/11/03 02:13:40;;;;;;;251.43;238.23;;;4.90;99.90;;;;;;4430934;32;20226;-61
2021/11/03 02:16:09;;;;;;;251.07;235.07;;;4.90;99.90;;;;;;4439143;32;20624;-60
2021/11/03 02:18:37;;;;;;;270.93;256.33;;;4.90;99.90;;;;;;4437800;32;20206;-60
2021/11/03 02:21:05;;;;;;;252.57;238.87;;;4.90;99.90;;;;;;4437800;32;20215;-60
2021/11/03 02:23:38;;;;;;;260.90;246.57;;;4.90;99.90;;;;;;4438547;32;20154;-60
2021/11/03 02:26:10;;;;;;;248.27;235.27;;;4.90;99.90;;;;;;4438367;32;20222;-61
2021/11/03 02:28:37;;;;;;;257.37;244.07;;;5.00;99.90;;;;;;4437653;32;20190;-60
2021/11/03 02:31:04;;;;;;;265.57;251.83;;;5.00;99.90;;;;;;4437510;32;20219;-61
2021/11/03 02:33:32;;;;;;;261.20;247.40;;;5.10;99.90;;;;;;4416609;32;20155;-60
2021/11/03 02:36:02;;;;;;;277.77;262.70;;;5.00;99.90;;;;;;4406929;32;20519;-61
2021/11/03 02:38:32;;;;;;;278.17;262.80;;;5.10;99.90;;;;;;4407168;32;20207;-61
2021/11/03 02:41:03;;;;;;;274.33;260.37;;;5.00;99.90;;;;;;4407395;32;20530;-61
2021/11/03 02:43:40;;;;;;;264.17;250.73;;;5.00;99.90;;;;;;4408824;32;20198;-60
2021/11/03 02:46:08;;;;;;;255.57;242.80;;;5.00;99.90;;;;;;4406980;32;20175;-60
2021/11/03 02:48:37;;;;;;;259.17;244.63;;;5.00;99.90;;;;;;4406836;32;20218;-60
2021/11/03 02:51:08;;;;;;;258.00;244.77;;;5.00;99.90;;;;;;4406863;32;20248;-61
2021/11/03 02:53:38;;;;;;;254.07;240.47;;;4.80;99.90;;;;;;4406848;32;20202;-60
2021/11/03 02:56:06;;;;;;;250.23;236.10;;;4.80;99.90;;;;;;4406425;32;20160;-60
2021/11/03 02:58:36;;;;;;;243.77;231.77;;;4.80;99.90;;;;;;4406660;32;20199;-61
2021/11/03 03:01:11;;;;;;;250.43;235.67;;;4.80;99.90;;;;;;4407619;32;20152;-60
2021/11/03 03:03:39;;;;;;;243.77;231.87;;;4.70;99.90;;;;;;4416044;32;20553;-60
2021/11/03 03:06:10;;;;;;;228.57;217.20;;;4.70;99.90;;;;;;4421780;32;20196;-60
2021/11/03 03:08:37;;;;;;;228.37;217.37;;;4.60;99.90;;;;;;4407427;32;20596;-60
2021/11/03 03:11:04;;;;;;;238.00;225.23;;;4.50;99.90;;;;;;4407611;32;20201;-61
2021/11/03 03:13:31;;;;;;;240.97;229.40;;;4.50;99.90;;;;;;4417479;32;20203;-61
2021/11/03 03:16:00;;;;;;;233.07;221.70;;;4.50;99.90;;;;;;4421663;32;20203;-60
2021/11/03 03:18:27;;;;;;;249.70;236.77;;;4.50;99.90;;;;;;4421740;32;20160;-60
2021/11/03 03:20:55;;;;;;;248.90;237.27;;;4.50;99.90;;;;;;4421811;32;20194;-60
2021/11/03 03:23:21;;;;;;;249.17;237.27;;;4.40;99.90;;;;;;4422569;32;20186;-61
2021/11/03 03:25:51;;;;;;;243.37;231.13;;;4.30;99.90;;;;;;4422351;32;20167;-60
2021/11/03 03:28:18;;;;;;;234.13;222.53;;;4.30;99.90;;;;;;4421291;32;20155;-61
2021/11/03 03:30:47;;;;;;;243.53;231.40;;;4.20;99.90;;;;;;4421160;32;20229;-60
2021/11/03 03:33:16;;;;;;;220.00;209.03;;;4.20;99.90;;;;;;4422937;32;20217;-61
2021/11/03 03:35:42;;;;;;;234.70;223.07;;;4.20;99.90;;;;;;4421308;32;20227;-60
2021/11/03 03:38:09;;;;;;;244.00;231.67;;;4.10;99.90;;;;;;4422250;32;20575;-61
2021/11/03 03:40:36;;;;;;;237.73;226.03;;;4.10;99.90;;;;;;4421391;32;20171;-60
2021/11/03 03:43:04;;;;;;;240.27;228.10;;;4.10;99.90;;;;;;4421362;32;20551;-61
2021/11/03 03:45:34;;;;;;;233.70;221.50;;;4.10;99.90;;;;;;4421607;32;20181;-60
2021/11/03 03:48:01;;;;;;;222.77;210.67;;;4.00;99.90;;;;;;4422937;32;20514;-60
2021/11/03 03:50:34;;;;;;;225.67;214.43;;;3.90;99.90;;;;;;4422974;32;20209;-60
2021/11/03 03:53:01;;;;;;;236.30;224.20;;;3.90;99.90;;;;;;4421027;32;20212;-60
2021/11/03 03:55:28;;;;;;;241.30;228.17;;;3.90;99.90;;;;;;4421172;32;20158;-60
2021/11/03 03:57:54;;;;;;;239.17;226.83;;;3.90;99.90;;;;;;4421112;32;20201;-60
2021/11/03 04:00:23;;;;;;;238.77;226.83;;;3.80;99.90;;;;;;4420937;32;20191;-60
2021/11/03 04:02:51;;;;;;;232.67;221.13;;;3.80;99.90;;;;;;4421151;32;20541;-60
2021/11/03 04:05:19;;;;;;;242.23;230.03;;;3.80;99.90;;;;;;4422192;32;20222;-60
2021/11/03 04:07:47;;;;;;;243.30;228.97;;;3.80;99.90;;;;;;4422552;32;20537;-60
2021/11/03 04:10:14;;;;;;;240.30;228.33;;;3.90;99.90;;;;;;4416426;32;20182;-60
2021/11/03 04:12:42;;;;;;;244.33;230.93;;;3.90;99.90;;;;;;4419883;32;20165;-60
2021/11/03 04:15:10;;;;;;;229.97;217.83;;;3.90;99.90;;;;;;4413039;32;20164;-60
2021/11/03 04:17:36;;;;;;;235.50;222.03;;;3.90;99.90;;;;;;4405589;32;20267;-60
2021/11/03 04:20:04;;;;;;;213.57;202.60;;;3.90;99.90;;;;;;4406630;32;20208;-60
2021/11/03 04:22:31;;;;;;;242.00;228.60;;;3.90;99.90;;;;;;4405999;32;20166;-60
2021/11/03 04:24:59;;;;;;;242.47;228.13;;;3.90;99.90;;;;;;4405625;32;20483;-60
2021/11/03 04:27:28;;;;;;;250.37;238.00;;;3.90;99.90;;;;;;4405594;32;20167;-60
2021/11/03 04:29:55;;;;;;;254.77;239.53;;;4.00;99.90;;;;;;4330136;32;2405903;-60
2021/11/03 04:32:22;;;;;;;249.93;235.67;;;4.00;99.90;;;;;;4406202;32;20504;-60
2021/11/03 04:34:49;;;;;;;253.30;240.40;;;4.20;99.90;;;;;;4405413;32;20193;-60
2021/11/03 04:37:15;;;;;;;252.93;238.27;;;4.10;99.90;;;;;;4407211;32;20620;-60
2021/11/03 04:39:42;;;;;;;251.47;238.03;;;4.20;99.90;;;;;;4405525;32;20208;-60
2021/11/03 04:42:11;;;;;;;267.80;254.50;;;4.10;99.90;;;;;;4406817;32;20568;-60
2021/11/03 04:44:38;;;;;;;245.40;232.80;;;4.30;99.90;;;;;;4405261;32;20181;-60
2021/11/03 04:47:05;;;;;;;254.57;242.13;;;4.30;99.90;;;;;;4406162;32;20625;-61
2021/11/03 04:49:33;;;;;;;245.00;232.00;;;4.30;99.90;;;;;;4405527;32;20572;-59
2021/11/03 04:52:00;;;;;;;245.20;232.93;;;4.40;99.90;;;;;;4405435;32;20207;-60
2021/11/03 04:54:26;;;;;;;240.53;228.03;;;4.40;99.90;;;;;;4404757;32;20171;-60
2021/11/03 04:56:53;;;;;;;249.70;237.27;;;4.40;99.90;;;;;;4405282;32;20186;-60
2021/11/03 04:59:23;;;;;;;225.80;214.63;;;4.40;99.90;;;;;;4405449;32;20590;-60
2021/11/03 05:01:50;;;;;;;242.67;230.40;;;4.40;99.90;;;;;;4405407;32;20162;-60
2021/11/03 05:04:17;;;;;;;248.73;235.47;;;4.50;99.90;;;;;;4405465;32;20204;-60
2021/11/03 05:06:48;;;;;;;232.60;220.73;;;4.40;99.90;;;;;;4404811;32;20242;-59
2021/11/03 05:09:15;;;;;;;229.47;217.87;;;4.40;99.90;;;;;;4405311;32;20591;-60
2021/11/03 05:11:44;;;;;;;230.70;219.27;;;4.30;99.90;;;;;;4407084;32;20240;-60
2021/11/03 05:14:12;;;;;;;230.93;219.30;;;4.30;99.90;;;;;;4391619;32;20227;-60
2021/11/03 05:16:40;;;;;;;238.10;226.47;;;4.30;99.90;;;;;;4390705;32;20152;-59
2021/11/03 05:19:07;;;;;;;228.47;216.13;;;4.30;99.90;;;;;;4390087;32;20219;-60
2021/11/03 05:21:39;;;;;;;221.00;208.63;;;4.20;99.90;;;;;;4390163;32;20231;-60
2021/11/03 05:24:07;;;;;;;203.73;192.93;;;4.20;99.90;;;;;;4391464;32;20189;-60
2021/11/03 05:26:33;;;;;;;221.87;210.00;;;4.00;99.90;;;;;;4405862;32;20511;-60
2021/11/03 05:29:02;;;;;;;220.33;208.20;;;4.10;99.90;;;;;;4405026;32;20155;-60
2021/11/03 05:31:29;;;;;;;233.67;221.83;;;4.10;99.90;;;;;;4405195;32;20137;-60
2021/11/03 05:33:58;;;;;;;224.87;213.30;;;4.10;99.90;;;;;;4406859;32;20582;-60
2021/11/03 05:36:26;;;;;;;223.60;212.17;;;4.10;99.90;;;;;;4407967;32;20219;-60
2021/11/03 05:38:58;;;;;;;229.50;216.93;;;4.10;99.90;;;;;;4408417;32;20261;-60
2021/11/03 05:41:25;;;;;;;217.17;205.47;;;4.10;99.90;;;;;;4407841;32;20288;-59
2021/11/03 05:43:52;;;;;;;224.07;212.80;;;4.00;99.90;;;;;;4408187;32;20207;-60
2021/11/03 05:46:24;;;;;;;210.40;199.47;;;4.00;99.90;;;;;;4407792;32;20158;-59
2021/11/03 05:48:55;;;;;;;208.87;197.80;;;4.00;99.90;;;;;;4408407;32;20175;-60
2021/11/03 05:51:23;;;;;;;223.97;211.97;;;4.00;99.90;;;;;;4409399;32;20173;-60
2021/11/03 05:53:50;;;;;;;205.63;195.17;;;3.90;99.90;;;;;;4408681;32;20215;-60
2021/11/03 05:56:17;;;;;;;217.77;206.33;;;3.80;99.90;;;;;;4407647;32;20543;-60
2021/11/03 05:58:44;;;;;;;211.83;199.87;;;3.80;99.90;;;;;;4407716;32;20158;-59
2021/11/03 06:01:11;;;;;;;212.93;202.00;;;3.70;99.90;;;;;;4409371;32;20139;-60
2021/11/03 06:03:37;;;;;;;235.13;223.50;;;3.70;99.90;;;;;;4407556;32;20148;-60
2021/11/03 06:06:05;;;;;;;229.57;217.83;;;3.70;99.90;;;;;;4408934;32;20573;-60
2021/11/03 06:08:33;;;;;;;218.87;207.20;;;3.70;99.90;;;;;;4409145;32;20484;-60
2021/11/03 06:11:02;;;;;;;220.43;208.60;;;3.70;99.90;;;;;;4408807;32;20606;-60
2021/11/03 06:13:29;;;;;;;212.00;201.03;;;3.70;99.90;;;;;;4396578;32;20183;-60
2021/11/03 06:15:57;;;;;;;228.47;216.80;;;3.80;99.90;;;;;;4401616;32;20210;-60
2021/11/03 06:18:24;;;;;;;224.33;212.83;;;3.80;99.90;;;;;;4407349;32;20516;-60
2021/11/03 06:20:51;;;;;;;213.50;201.50;;;3.70;99.90;;;;;;4407282;32;20156;-60
2021/11/03 06:23:18;;;;;;;217.70;206.47;;;3.80;99.90;;;;;;4407963;32;20456;-59
2021/11/03 06:25:46;;;;;;;215.90;204.70;;;3.70;99.90;;;;;;4409083;32;20155;-60
2021/11/03 06:28:13;;;;;;;207.53;196.23;;;3.80;99.90;;;;;;4406901;32;20611;-60
2021/11/03 06:30:40;;;;;;;222.20;210.63;;;3.80;99.90;;;;;;4367418;32;20214;-59
2021/11/03 06:33:08;;;;;;;212.83;201.13;;;3.80;99.90;;;;;;4373513;32;20600;-60
2021/11/03 06:35:37;;;;;;;206.80;195.70;;;3.90;99.90;;;;;;4374064;32;20181;-60
2021/11/03 06:38:07;;;;;;;210.90;199.47;;;3.80;99.90;;;;;;4373863;32;20158;-59
2021/11/03 06:40:35;;;;;;;227.80;215.17;;;3.90;99.90;;;;;;4374822;32;20167;-60
2021/11/03 06:43:04;;;;;;;219.60;207.00;;;3.80;99.90;;;;;;4377065;32;20158;-60
2021/11/03 06:45:31;;;;;;;221.13;209.67;;;3.80;99.90;;;;;;4364487;32;20243;-59
2021/11/03 06:47:59;;;;;;;240.10;227.63;;;3.80;99.90;;;;;;4371867;32;20160;-60
2021/11/03 06:50:28;;;;;;;242.60;230.23;;;3.80;99.90;;;;;;4372166;32;20144;-60
2021/11/03 06:52:59;;;;;;;225.53;213.53;;;3.90;99.90;;;;;;4375184;32;20160;-60
2021/11/03 06:55:26;;;;;;;221.60;209.50;;;3.90;99.90;;;;;;4375003;32;20152;-59
2021/11/03 06:57:56;;;;;;;223.70;211.40;;;3.90;99.90;;;;;;4376881;32;20145;-60
2021/11/03 07:00:30;;;;;;;223.10;210.80;;;4.00;99.90;;;;;;4373844;32;20140;-60
2021/11/03 07:02:57;;;;;;;221.90;210.00;;;4.00;99.90;;;;;;4374580;32;20505;-60
2021/11/03 07:05:26;;;;;;;227.03;214.87;;;4.10;99.90;;;;;;4374116;32;20299;-60
2021/11/03 07:07:53;;;;;;;237.33;222.47;;;4.10;99.90;;;;;;4376425;32;20503;-60
2021/11/03 07:10:23;;;;;;;219.53;207.83;;;4.10;99.90;;;;;;4374419;32;20242;-59
2021/11/03 07:12:50;;;;;;;221.13;209.70;;;4.20;99.90;;;;;;4375625;32;20223;-60
2021/11/03 07:15:17;;;;;;;238.67;226.43;;;4.20;99.90;;;;;;4375243;32;20176;-60
2021/11/03 07:17:45;;;;;;;227.40;214.93;;;4.20;99.90;;;;;;4374945;32;20171;-60
2021/11/03 07:20:12;;;;;;;222.87;211.77;;;4.20;99.90;;;;;;4375401;32;20187;-60
2021/11/03 07:22:40;;;;;;;213.17;202.27;;;4.20;99.90;;;;;;4376007;32;20228;-60
2021/11/03 07:25:08;;;;;;;229.77;217.73;;;4.10;99.90;;;;;;4377359;32;20184;-59
2021/11/03 07:27:38;;;;;;;205.27;194.97;;;4.10;99.90;;;;;;4375761;32;20207;-60
2021/11/03 07:30:05;;;;;;;222.00;211.03;;;4.00;99.90;;;;;;4375477;32;20176;-60
2021/11/03 07:32:34;;;;;;;211.60;200.43;;;3.90;99.90;;;;;;4377157;32;20578;-60
2021/11/03 07:35:02;;;;;;;213.03;202.00;;;3.90;99.90;;;;;;4368726;32;20223;-59
2021/11/03 07:37:29;;;;;;;220.03;208.63;;;3.90;99.90;;;;;;4375781;32;20164;-59
2021/11/03 07:39:56;;;;;;;209.53;198.67;;;4.00;99.90;;;;;;4377466;32;20172;-60
2021/11/03 07:42:26;;;;;;;220.17;209.07;;;4.00;99.90;;;;;;4376622;32;20160;-60
2021/11/03 07:44:53;;;;;;;227.90;216.20;;;3.90;99.90;;;;;;4375830;32;20190;-60
2021/11/03 07:47:19;;;;;;;218.73;207.53;;;4.00;99.90;;;;;;4375810;32;20168;-60
2021/11/03 07:49:46;;;;;;;208.33;198.27;;;4.00;99.90;;;;;;4375768;32;20219;-60
2021/11/03 07:52:15;;;;;;;210.40;200.00;;;4.00;99.90;;;;;;4377381;32;20168;-60
2021/11/03 07:54:42;;;;;;;216.90;206.30;;;4.20;99.90;;;;;;4361946;32;20149;-59
2021/11/03 07:57:09;;;;;;;210.70;200.07;;;4.20;99.90;;;;;;4374750;32;20194;-60
2021/11/03 07:59:36;;;;;;;216.97;205.97;;;4.20;99.90;;;;;;4376272;32;20147;-58
2021/11/03 08:02:03;;;;;;;206.57;196.33;;;4.20;99.90;;;;;;4375142;32;20168;-60
2021/11/03 08:04:31;;;;;;;204.00;193.80;;;4.30;99.90;;;;;;4375055;32;20539;-59
2021/11/03 08:06:58;;;;;;;215.67;205.03;;;4.30;99.90;;;;;;4375553;32;20190;-61
2021/11/03 08:09:26;;;;;;;219.80;209.00;;;4.50;99.90;;;;;;4376578;32;20171;-60
2021/11/03 08:11:57;;;;;;;213.27;202.43;;;4.60;99.90;;;;;;4375807;32;20171;-60
2021/11/03 08:14:26;;;;;;;208.57;197.63;;;4.70;99.90;;;;;;4361128;32;20661;-60
2021/11/03 08:16:57;;;;;;;209.67;199.00;;;4.70;99.90;;;;;;4360795;33;20224;-60
2021/11/03 08:19:30;;;;;;;217.77;206.63;;;4.60;99.90;;;;;;4362370;32;20141;-60
2021/11/03 08:21:58;;;;;;;225.03;213.57;;;4.70;99.90;;;;;;4362160;32;20215;-60
2021/11/03 08:24:27;;;;;;;221.07;209.20;;;4.90;99.90;;;;;;4361302;32;20213;-59
2021/11/03 08:26:55;;;;;;;214.40;203.47;;;5.00;99.90;;;;;;4360477;33;20168;-60
2021/11/03 08:29:23;;;;;;;210.50;198.93;;;5.10;99.90;;;;;;4361336;32;20232;-60
2021/11/03 08:31:55;;;;;;;218.67;207.17;;;5.20;99.90;;;;;;4353479;32;20148;-60
2021/11/03 08:34:23;;;;;;;228.53;217.17;;;5.30;99.90;;;;;;4360348;33;20145;-60
2021/11/03 08:36:50;;;;;;;221.60;210.03;;;5.60;99.90;;;;;;4360279;33;20153;-60
2021/11/03 08:39:17;;;;;;;235.40;223.57;;;5.80;99.90;;;;;;4362114;33;20255;-59
2021/11/03 08:41:45;;;;;;;234.03;222.57;;;6.00;99.90;;;;;;4360310;33;20899;-60
2021/11/03 08:44:12;;;;;;;240.87;228.77;;;6.20;99.90;;;;;;4360444;33;20141;-60
2021/11/03 08:46:39;;;;;;;250.30;237.87;;;6.40;99.90;;;;;;4360464;33;20156;-60
2021/11/03 08:49:06;;;;;;;234.60;222.67;;;6.60;99.90;;;;;;4360333;33;20140;-60
2021/11/03 08:51:35;;;;;;;242.40;230.37;;;6.80;99.90;;;;;;4360538;33;20172;-60
2021/11/03 08:54:04;;;;;;;222.07;211.07;;;7.00;99.90;;;;;;4362056;33;20565;-60
2021/11/03 08:56:32;;;;;;;190.13;180.33;;;7.30;99.90;;;;;;4361426;33;20141;-60
2021/11/03 08:59:03;;;;;;;191.20;181.40;;;7.40;99.90;;;;;;4360203;33;20160;-60
2021/11/03 09:01:32;;;;;;;184.80;175.07;;;7.50;99.90;;;;;;4362021;33;20156;-60
2021/11/03 09:03:59;;;;;;;157.90;149.63;;;7.60;99.90;;;;;;4362091;33;20137;-60
2021/11/03 09:06:26;;;;;;;191.23;181.33;;;7.70;99.90;;;;;;4360294;33;20156;-60
2021/11/03 09:08:54;;;;;;;151.20;143.10;;;7.90;99.90;;;;;;4363737;32;20167;-61
2021/11/03 09:11:22;;;;;;;158.80;150.47;;;8.10;99.90;;;;;;4363263;33;20159;-60
2021/11/03 09:13:50;;;;;;;87.07;81.60;;;8.20;99.90;;;;;;4363146;33;20141;-61
2021/11/03 09:16:18;;;;;;;90.87;85.77;;;8.40;99.90;;;;;;4364277;32;20161;-60
2021/11/03 09:18:45;;;;;;;70.93;66.07;;;8.50;99.90;;;;;;4362975;33;20141;-60
2021/11/03 09:21:12;;;;;;;78.67;73.87;;;8.60;99.90;;;;;;4362934;32;20149;-60
2021/11/03 09:23:39;;;;;;;72.27;67.57;;;8.70;99.90;;;;;;4364363;32;20159;-60
2021/11/03 09:26:06;;;;;;;68.13;63.60;;;8.80;99.90;;;;;;4362977;33;20137;-61
2021/11/03 09:28:35;;;;;;;58.23;54.10;;;8.90;99.90;;;;;;4364413;32;20452;-61
2021/11/03 09:31:04;;;;;;;54.73;50.87;;;8.90;99.90;;;;;;4362515;33;20188;-60
2021/11/03 09:33:34;;;;;;;51.77;48.03;;;8.80;99.90;;;;;;4362558;33;20177;-61
2021/11/03 09:36:02;;;;;;;47.83;44.17;;;8.60;99.90;;;;;;4359710;32;20142;-61
2021/11/03 09:38:31;;;;;;;47.43;43.63;;;8.40;99.90;;;;;;4355369;33;20227;-60
2021/11/03 09:41:01;;;;;;;46.77;43.07;;;8.10;99.90;;;;;;4356208;32;20221;-60
2021/11/03 09:43:32;;;;;;;47.10;43.23;;;7.90;99.90;;;;;;4354039;33;20197;-60
2021/11/03 09:46:01;;;;;;;49.43;45.53;;;7.80;99.90;;;;;;4354378;32;20176;-60
2021/11/03 09:48:30;;;;;;;47.73;43.73;;;7.60;99.90;;;;;;4355831;32;20153;-60
2021/11/03 09:51:02;;;;;;;49.20;45.00;;;7.50;99.90;;;;;;4356060;33;20185;-61
2021/11/03 09:53:36;;;;;;;50.27;45.87;;;7.50;99.90;;;;;;4354914;32;20157;-61
2021/11/03 09:56:04;;;;;;;48.20;44.00;;;7.70;99.90;;;;;;4354752;33;20232;-60
2021/11/03 09:58:48;;;;;;;48.13;43.93;;;7.80;99.90;;;;;;4353317;32;20157;-60
2021/11/03 10:01:22;;;;;;;45.63;41.73;;;7.80;99.90;;;;;;4355649;32;20608;-61
2021/11/03 10:04:05;;;;;;;46.73;42.73;;;7.80;99.90;;;;;;4355079;32;20152;-61
2021/11/03 10:06:45;;;;;;;48.37;43.97;;;7.80;99.90;;;;;;4351298;33;20226;-61
2021/11/03 10:09:12;;;;;;;49.83;45.13;;;7.70;99.90;;;;;;4347637;33;20129;-61
2021/11/03 10:11:45;;;;;;;48.17;43.67;;;7.70;99.90;;;;;;4347647;33;20156;-60
2021/11/03 10:14:12;;;;;;;50.80;46.57;;;7.60;99.90;;;;;;4347717;33;20150;-61
2021/11/03 10:16:42;;;;;;;48.93;44.47;;;7.70;99.90;;;;;;4347507;33;20142;-61
2021/11/03 10:19:31;;;;;;;45.90;41.70;;;7.70;99.90;;;;;;4347069;33;20140;-61
2021/11/03 10:22:19;;;;;;;53.57;48.13;;;7.70;99.90;;;;;;4349083;32;20146;-61
2021/11/03 10:25:02;;;;;;;49.97;45.43;;;7.70;99.90;;;;;;4350235;33;20164;-61
2021/11/03 10:27:30;;;;;;;50.03;45.50;;;7.80;99.90;;;;;;4361720;32;20860;-61
2021/11/03 10:30:16;;;;;;;53.77;48.90;;;7.90;99.90;;;;;;4360581;32;20505;-61
2021/11/03 10:32:44;;;;;;;49.03;44.57;;;8.10;99.90;;;;;;4355984;32;20600;-61
2021/11/03 10:35:22;;;;;;;48.13;43.63;;;8.20;99.90;;;;;;4361029;33;20239;-61
2021/11/03 10:38:00;;;;;;;49.37;44.90;;;8.20;99.90;;;;;;4351777;32;20145;-62
2021/11/03 10:40:31;;;;;;;48.57;44.33;;;8.40;99.90;;;;;;4360195;32;20157;-62
2021/11/03 10:43:01;;;;;;;45.83;42.13;;;8.50;99.90;;;;;;4352267;32;20648;-61
2021/11/03 10:45:32;;;;;;;46.93;42.93;;;8.70;99.90;;;;;;4359690;32;20613;-61
2021/11/03 10:48:14;;;;;;;49.93;45.63;;;8.90;99.90;;;;;;4361879;33;20574;-62
2021/11/03 10:50:49;;;;;;;57.17;52.63;;;9.00;99.90;;;;;;4360809;33;20156;-62
2021/11/03 10:53:24;;;;;;;52.77;48.40;;;9.10;99.90;;;;;;4361192;32;20153;-62
2021/11/03 10:56:00;;;;;;;51.60;47.33;;;9.10;99.90;;;;;;4361437;32;20143;-61
2021/11/03 10:58:30;;;;;;;54.83;50.27;;;9.10;99.90;;;;;;4346653;33;20145;-61
2021/11/03 11:01:04;;;;;;;56.93;52.07;;;9.10;99.90;;;;;;4346737;33;20163;-61
2021/11/03 11:03:35;;;;;;;63.43;58.63;;;9.00;99.90;;;;;;4346573;33;20146;-61
2021/11/03 11:06:13;;;;;;;61.13;56.03;;;9.10;99.90;;;;;;4354539;32;20582;-61
2021/11/03 11:08:54;;;;;;;63.70;58.73;;;9.20;99.90;;;;;;4354115;33;20211;-60
2021/11/03 11:11:26;;;;;;;60.00;55.03;;;9.10;99.90;;;;;;4362444;32;20144;-62
2021/11/03 11:14:00;;;;;;;67.40;61.77;;;8.90;99.90;;;;;;4361721;32;20137;-62
2021/11/03 11:16:36;;;;;;;62.23;56.93;;;8.70;99.90;;;;;;4360983;32;20571;-61
2021/11/03 11:19:14;;;;;;;58.20;53.13;;;8.50;99.90;;;;;;4361085;32;20187;-60
2021/11/03 11:21:51;;;;;;;59.90;54.70;;;8.50;99.90;;;;;;4359120;33;20141;-62
2021/11/03 11:24:31;;;;;;;56.93;52.00;;;8.50;99.90;;;;;;4356512;32;20199;-61
2021/11/03 11:27:07;;;;;;;62.07;56.77;;;8.50;99.90;;;;;;4358883;32;20170;-62
2021/11/03 11:29:46;;;;;;;59.20;53.63;;;8.50;99.90;;;;;;4362190;32;20225;-61
2021/11/03 11:32:24;;;;;;;60.63;55.27;;;8.60;99.90;;;;;;4359997;33;20180;-62
2021/11/03 11:35:10;;;;;;;60.67;55.20;;;8.80;99.90;;;;;;4359379;33;20149;-61
2021/11/03 11:37:44;;;;;;;65.60;59.97;;;8.90;99.90;;;;;;4360568;32;20192;-61
2021/11/03 11:40:25;;;;;;;62.27;56.97;;;9.10;99.90;;;;;;4361863;32;20180;-62
2021/11/03 11:42:59;;;;;;;62.57;57.40;;;9.20;99.90;;;;;;4359788;33;20168;-61
2021/11/03 11:45:28;;;;;;;59.10;54.10;;;9.40;99.90;;;;;;4360807;32;20569;-62
2021/11/03 11:47:59;;;;;;;63.57;58.17;;;9.60;99.90;;;;;;4357187;32;20564;-61
2021/11/03 11:50:47;;;;;;;62.97;57.87;;;9.80;99.90;;;;;;4355657;33;20214;-60
2021/11/03 11:53:24;;;;;;;69.73;64.10;;;9.90;99.90;;;;;;4348213;33;20900;-62
2021/11/03 11:56:14;;;;;;;75.17;69.47;;;10.00;99.90;;;;;;4347106;32;20189;-61
2021/11/03 11:58:42;;;;;;;68.33;62.83;;;10.10;99.90;;;;;;4281966;33;20546;-61
2021/11/03 12:01:22;;;;;;;75.67;70.10;;;10.20;99.90;;;;;;4282605;33;20182;-61
2021/11/03 12:04:08;;;;;;;74.60;68.67;;;10.30;99.90;;;;;;4284319;33;20164;-61
2021/11/03 12:06:40;;;;;;;73.13;67.57;;;10.30;99.90;;;;;;4285925;33;20617;-61
2021/11/03 12:09:22;;;;;;;72.10;66.43;;;10.30;99.90;;;;;;4284532;33;20218;-61
2021/11/03 12:12:00;;;;;;;80.70;74.33;;;10.40;99.90;;;;;;4284384;33;20154;-61
2021/11/03 12:14:39;;;;;;;72.27;66.83;;;10.30;99.90;;;;;;4283977;33;20160;-61
2021/11/03 12:17:36;;;;;;;75.77;70.17;;;10.30;99.90;;;;;;4284480;33;20183;-61
2021/11/03 12:20:23;;;;;;;72.73;67.10;;;10.40;99.90;;;;;;4286240;33;20151;-60
2021/11/03 12:22:53;;;;;;;74.87;68.63;;;10.40;99.90;;;;;;4286068;33;20514;-60
2021/11/03 12:25:46;;;;;;;75.17;69.43;;;10.50;99.90;;;;;;4284497;33;20187;-61
2021/11/03 12:28:34;;;;;;;81.70;75.47;;;10.50;99.90;;;;;;4284399;33;20170;-60
2021/11/03 12:31:21;;;;;;;71.93;65.83;;;10.60;99.90;;;;;;4285052;33;20185;-61
2021/11/03 12:34:17;;;;;;;79.17;73.33;;;10.60;99.90;;;;;;4278488;33;20610;-62